Track Тюфяков Александр

Time Latitude Longitude Accuracy (66% radius in meters) Altitude (meters) Speed (km/hour) Bearing (degrees) Battery (%) GPS flag
07:49:24 58.655615 49.680201 0 0 0 0 1 delete
07:49:23 58.655635 49.680103 0 0 0 0 1 delete
07:49:22 58.655659 49.680005 0 0 0 0 1 delete
07:49:21 58.655684 49.679929 0 0 0 0 1 delete
07:49:20 58.655708 49.679856 0 0 0 0 1 delete
07:49:19 58.655731 49.679793 0 0 0 0 1 delete
07:49:18 58.655756 49.679736 0 0 0 0 1 delete
07:49:17 58.655776 49.679686 0 0 0 0 1 delete
07:49:16 58.655794 49.679638 0 0 0 0 1 delete
07:49:14 58.655816 49.679582 0 0 0 0 1 delete
07:49:13 58.655821 49.679543 0 0 0 0 1 delete
07:49:12 58.655822 49.679485 0 0 0 0 1 delete
07:49:11 58.655800 49.679420 0 0 0 0 1 delete
07:49:10 58.655763 49.679359 0 0 0 0 1 delete
07:49:09 58.655725 49.679293 0 0 0 0 1 delete
07:49:08 58.655690 49.679223 0 0 0 0 1 delete
07:49:07 58.655653 49.679156 0 0 0 0 1 delete
07:49:06 58.655608 49.679094 0 0 0 0 1 delete
07:49:05 58.655570 49.679037 0 0 0 0 1 delete
07:49:04 58.655531 49.678996 0 0 0 0 1 delete
07:49:03 58.655494 49.678951 0 0 0 0 1 delete
07:49:02 58.655456 49.678916 0 0 0 0 1 delete
07:49:01 58.655419 49.678888 0 0 0 0 1 delete
07:49:00 58.655382 49.678892 0 0 0 0 1 delete
07:48:59 58.655342 49.678920 0 0 0 0 1 delete
07:48:58 58.655305 49.678944 0 0 0 0 1 delete
07:48:57 58.655276 49.678971 0 0 0 0 1 delete
07:48:56 58.655250 49.678995 0 0 0 0 1 delete
07:48:55 58.655224 49.679019 0 0 0 0 1 delete
07:48:54 58.655202 49.679032 0 0 0 0 1 delete
07:48:52 58.655168 49.678994 0 0 0 0 1 delete
07:48:50 58.655159 49.678951 0 0 0 0 1 delete
07:48:43 58.655160 49.678911 0 0 0 0 1 delete
07:48:40 58.655178 49.678926 0 0 0 0 1 delete
07:48:38 58.655181 49.679000 0 0 0 0 1 delete
07:48:37 58.655169 49.679052 0 0 0 0 1 delete
07:48:36 58.655146 49.679094 0 0 0 0 1 delete
07:48:35 58.655118 49.679128 0 0 0 0 1 delete
07:48:34 58.655082 49.679169 0 0 0 0 1 delete
07:48:33 58.655044 49.679214 0 0 0 0 1 delete
07:48:32 58.655003 49.679263 0 0 0 0 1 delete
07:48:31 58.654956 49.679313 0 0 0 0 1 delete
07:48:30 58.654904 49.679371 0 0 0 0 1 delete
07:48:29 58.654855 49.679431 0 0 0 0 1 delete
07:48:28 58.654804 49.679459 0 0 0 0 1 delete
07:48:27 58.654756 49.679450 0 0 0 0 1 delete
07:48:26 58.654717 49.679410 0 0 0 0 1 delete
07:48:25 58.654681 49.679365 0 0 0 0 1 delete
07:48:24 58.654640 49.679336 0 0 0 0 1 delete
07:48:23 58.654604 49.679307 0 0 0 0 1 delete